Dripping Springs' Hourly Summary for Friday, March 17, 2017
Hour Temp
(f)
RH
(%)
Solar Rad.
(MJ/m2)
Rainfall
(in)
Wind
(mph)
3/17/2017 12:00 AM 65 99 0 0 9.24
3/17/2017 1:00 AM 64 99 0 0 10.09
3/17/2017 2:00 AM 64 100 0 0 10.88
3/17/2017 3:00 AM 64 100 0 0 11.95
3/17/2017 4:00 AM 64 99 0 0 12.23
3/17/2017 5:00 AM 65 99 0 0 10.39
3/17/2017 6:00 AM 65 99 0 0 8.87
3/17/2017 7:00 AM 65 99 0 0 9.04
3/17/2017 8:00 AM 65 99 0 0 8.92
3/17/2017 9:00 AM 65 100 0.04 0 9
3/17/2017 10:00 AM 65 100 0.15 0 9.76
3/17/2017 11:00 AM 66 99 0.36 0 10.25
3/17/2017 12:00 PM 67 99 0.64 0 10
3/17/2017 1:00 PM 69 96 0.98 0 11.64
3/17/2017 2:00 PM 72 75 2.35 0 10.93
3/17/2017 3:00 PM 75 66 2.66 0 11.12
3/17/2017 4:00 PM 76 60 2.2 0 10.48
3/17/2017 5:00 PM 77 54 2.01 0 9.62
3/17/2017 6:00 PM 78 53 0.94 0 9.58
3/17/2017 7:00 PM 77 54 0.58 0 8.24
3/17/2017 8:00 PM 75 58 0.11 0 6.19
3/17/2017 9:00 PM 71 69 0 0 6.41
3/17/2017 10:00 PM 69 84 0 0 7.01
3/17/2017 11:00 PM 68 97 0 0 7.92
Data Summary 68 85 13.02 0.00 9.57